Terminal Aerodrome Forecast
Issued by NWS Cleveland, OH

Home | Current Version | Previous Version | Text Only | Print | Product List | Glossary On
Versions: 1 2 3 4 5 6 7 8 9 10 11 12 13 14 15 16 17 18 19
000
FTUS41 KCLE 181137
TAFTOL
TAF
KTOL 181137Z 1812/1912 20008KT 4SM BR OVC015
      TEMPO 1812/1815 2SM SHRA OVC005
     FM181500 21008KT 3SM -SHRA BR OVC025
     FM181800 15010KT 5SM -SHRA BR OVC003
     FM182200 32020G35KT 3SM SHRA BR OVC003
     FM190400 32020G35KT 5SM -SHSN OVC015
     FM191000 30015G30KT P6SM OVC025=

USA.gov is the U.S. government's official web portal to all federal, state and local government web resources and services.